This is the latest recevied weather packets stored in our database for station/object SR5NLK-1. If no packets are shown the sender has not sent any weather packets the latest 10 day(s).
| Time | Temp. | Humidity | Pressure | Rain* | Wind** | Luminosity | Snow |
|---|---|---|---|---|---|---|---|
| 1787656953 | 23.89° C | 49% | 1069 hPa | 0 mm | - | - | - |
| 1787656804 | 23.89° C | 48% | 1041.3 hPa | 0 mm | - | - | - |
| 1787656631 | 23.89° C | 50% | 1036.6 hPa | 0 mm | - | - | - |
| 1787656504 | 23.89° C | 48% | 1079.5 hPa | 0 mm | - | - | - |
| 1787656285 | 23.33° C | 50% | 1033.4 hPa | 0 mm | - | - | - |
| 1787656237 | 23.89° C | 47% | 1042.8 hPa | 0 mm | - | - | - |
| 1787656204 | 23.89° C | 47% | 1042.8 hPa | 0 mm | - | - | - |
| 1787656094 | 22.78° C | 51% | 1075.2 hPa | 0 mm | - | - | - |
| 1787655904 | 24.44° C | 47% | 1062.7 hPa | 0 mm | - | - | - |
| 1787655604 | 23.89° C | 47% | 1097.2 hPa | 0 mm | - | - | - |
| 1787655581 | 22.78° C | 51% | 1049.1 hPa | 0 mm | - | - | - |
| 1787655483 | 23.89° C | 47% | 1007.5 hPa | 0 mm | - | - | - |
| 1787655339 | 23.89° C | 47% | 1035.1 hPa | 0 mm | - | - | - |
| 1787655324 | 23.33° C | 50% | 1049.1 hPa | 0 mm | - | - | - |
| 1787655304 | 23.89° C | 47% | 1035.1 hPa | 0 mm | - | - | - |
| 1787655020 | 23.33° C | 51% | 994.7 hPa | 0 mm | - | - | - |
| 1787655004 | 23.89° C | 49% | 1084.6 hPa | 0 mm | - | - | - |
| 1787654827 | 22.78° C | 51% | 1039.7 hPa | 0 mm | - | - | - |
| 1787654825 | 22.22° C | 52% | 1072.1 hPa | 0 mm | - | - | - |
| 1787654704 | 23.89° C | 49% | 1001.6 hPa | 0 mm | - | - | - |
| 1787654658 | 22.78° C | 51% | 1039.7 hPa | 0 mm | - | - | - |
| 1787654404 | 23.89° C | 49% | 1069 hPa | 0 mm | - | - | - |
| 1787654369 | 22.22° C | 52% | 1072.1 hPa | 0 mm | - | - | - |
| 1787654161 | 22.22° C | 51% | 1072.1 hPa | 0 mm | - | - | - |
| 1787654104 | 23.89° C | 49% | 1027.1 hPa | 0 mm | - | - | - |
* Rain latest hour (hover to see other rain measurements)
** Current wind speed in m/s (hover to see current wind gust speed)